Strona główna
METAR-TAF:

METAR-TAF

Lotnisko :

Büchel, Niemcy

Szerokość geograficzna: 50-10N, Długość geograficzna: 007-04E, wysokość: 478 m

Aktualna obserwacja pogody

Raport powstał 26 minut temu, godzina 20:20 UTC
Wiatr 4 kt od zachód
Temperatura 20°C
Wilgotność 68%
Ciśnienie 1016 hPa
Widzialność 10 km lub więcej

METAR: ETSB 202020Z AUTO 28004KT 9999 // ////// 20/14 Q1016 ///

czas: 22:46 (20:46 UTC)


TAF: brakujący

Obserwacja i prognoza pogody dla ponad 4000 lotnisk (raport METAR i TAF).

Dostępne stacje oznaczono żółtymi i czerwonymi punktami na mapie.

Najedź kursorem aby zobaczyć nazwę stacji.

Kliknij aby zobaczyć obserwacje i prognozy pogody.

Aby zmienić mapę: kliknij na zielony przycisk z czarnym krzyżykiem, aby powiększyć; na zielony przycisk z myślnikiem, aby pomniejszyć; na zielone strzałki, aby przejść do map sąsiednich.


METAR-TAF: